Portada
METAR-TAF:

METAR-TAF

Aeroports :

Plataforma petroliera Norsk Hydro

Oseberg, Noruega

latitud: 60-29-29N, longitud: 2-49-32E, altitud: 158 m

Observació

L'informe es va fer fa 21 minuts, a les 20:50 UTC
Vent 28 kt del Sud
Temperatura 15°C
Humitat 100%
Pressió 1019 hPa
Visibilitat: 0200 m
boira

METAR: ENOA 242050Z 18028KT 0200 FG VV001 15/15 Q1019 W///S4

Hora: 23:11 (21:11 UTC)

Pronòstic

Pronòstic vàlid del 24 a les 21 UTC al 25 a les 21 UTC
Vent 25 kt del Sud
Visibilitat: 7000 m
Núvols disperses a una alçada de 500 ft
Cel ennuvolat a una alçada de 10000 ft
Temporalment
l' 24 a les 21 UTC al 25 a les 12 UTC
Visibilitat: 3000 m
Cel ennuvolat a una alçada de 400 ft
boirina
Probabilitat 30%
l' 25 a les 12 UTC al 25 a les 21 UTC
Visibilitat: 0500 m
a una alçada de 100 ft
boira
Evolucionant progressivament
l' 25 a les 06 UTC al 25 a les 08 UTC
Vent 15 kt del Sud

TAF: ENOA 2421/2521 18025KT 7000 SCT005 BKN100 TEMPO 2421/2512 3000 BR BKN004 PROB30 2512/2521 0500 FG VV001 BECMG 2506/2508 19015KT

Observacions i pronòstics meteorològics de més de 4000 aeroports (METAR i TAF).

Les estacions disponibles són els punts grocs i vermells al mapa.

Posi el ratolí al punt desitjat per veure el nom de l'estació.

Feu clic per veure les observacions i els pronòstics meteorològics.

Per canviar el mapa: feu clic els botons verds amb una creu de color negre per apropar; al botó verd amb un guió per allunyar la imatge; o en les fletxes verdes per a mapes adjacents.


METAR-TAF: